Time;durP1;ratioP1;P1;durP2;ratioP2;P2;SDS_P1;SDS_P2;PMS_P1;PMS_P2;Temp;Humidity;BMP_temperature;BMP_pressure;BME280_temperature;BME280_humidity;BME280_pressure;Samples;Min_cycle;Max_cycle;Signal;HPM_P1;HPM_P2
2022/06/25 00:01:34;;;;;;;5.30;3.22;;;;;;;15.74;58.85;96791.27;1765160;80;25821;-80
2022/06/25 00:04:01;;;;;;;3.12;2.83;;;;;;;15.78;58.95;96795.12;1762208;80;28125;-81
2022/06/25 00:06:28;;;;;;;5.08;3.10;;;;;;;15.79;58.96;96794.86;1747760;80;25748;-79
2022/06/25 00:08:55;;;;;;;7.45;2.80;;;;;;;15.73;59.10;96793.16;1765106;80;25725;-79
2022/06/25 00:14:11;;;;;;;6.47;3.30;;;;;;;15.73;59.30;96789.08;1759019;80;25735;-80
2022/06/25 00:16:38;;;;;;;6.70;3.10;;;;;;;15.74;59.21;96788.00;1760373;80;27468;-82
2022/06/25 00:19:05;;;;;;;4.72;2.90;;;;;;;15.74;59.38;96788.00;1766950;80;25789;-80
2022/06/25 00:21:32;;;;;;;3.67;2.52;;;;;;;15.68;59.33;96789.05;1765734;81;25798;-80
2022/06/25 00:23:58;;;;;;;5.58;2.98;;;;;;;15.58;59.22;96787.58;1758658;80;25972;-80
2022/06/25 00:26:27;;;;;;;3.47;2.77;;;;;;;15.55;59.47;96785.39;1769803;80;25685;-80
2022/06/25 00:28:54;;;;;;;3.95;3.10;;;;;;;15.55;59.62;96791.38;1760429;80;28190;-81
2022/06/25 00:31:20;;;;;;;3.85;2.75;;;;;;;15.57;59.71;96789.22;1765718;81;25744;-79
2022/06/25 00:33:47;;;;;;;4.20;2.92;;;;;;;15.58;59.74;96796.30;1767850;80;25265;-79
2022/06/25 00:36:13;;;;;;;3.17;2.72;;;;;;;15.58;59.74;96792.22;1744220;80;25728;-79
2022/06/25 00:38:40;;;;;;;4.20;2.80;;;;;;;15.57;59.79;96791.40;1768479;80;25828;-80
2022/06/25 00:41:06;;;;;;;3.40;2.37;;;;;;;15.54;59.84;96797.31;1741015;80;27394;-81
2022/06/25 00:43:39;;;;;;;3.52;2.52;;;;;;;15.55;59.94;96785.93;1754689;80;25680;-80
2022/06/25 00:46:05;;;;;;;;;;;;;;;15.52;59.86;96785.87;1738441;80;25837;-80
2022/06/25 00:48:32;;;;;;;2.95;2.20;;;;;;;15.47;60.36;96778.47;1747913;80;25895;-81
2022/06/25 00:51:00;;;;;;;3.50;2.52;;;;;;;15.41;60.05;96780.88;1769427;80;26722;-80
2022/06/25 00:53:31;;;;;;;2.85;2.65;;;;;;;15.36;60.10;96783.53;1737908;80;27407;-81
2022/06/25 00:55:59;;;;;;;5.25;3.35;;;;;;;15.34;60.23;96779.42;1703765;82;25804;-80
2022/06/25 00:58:31;;;;;;;3.37;2.42;;;;;;;15.32;60.23;96780.23;1696009;83;25258;-79
2022/06/25 01:01:00;;;;;;;3.17;2.35;;;;;;;15.27;60.20;96787.79;1676694;84;26547;-79
2022/06/25 01:03:28;;;;;;;6.92;2.70;;;;;;;15.20;60.37;96787.72;1674448;84;25894;-78
2022/06/25 01:05:54;;;;;;;2.72;2.47;;;;;;;15.15;60.52;96777.60;1680131;84;27515;-79
2022/06/25 01:08:22;;;;;;;7.15;2.75;;;;;;;15.08;60.57;96779.71;1677394;84;25931;-81
2022/06/25 01:10:49;;;;;;;2.60;2.40;;;;;;;15.03;60.65;96783.19;1668970;84;25801;-80
2022/06/25 01:13:19;;;;;;;3.33;2.90;;;;;;;14.98;60.78;96779.57;1671558;84;25825;-80
2022/06/25 01:15:44;;;;;;;4.45;2.87;;;;;;;14.92;60.81;96783.32;1668924;84;25896;-79
2022/06/25 01:18:11;;;;;;;5.33;2.80;;;;;;;14.89;61.05;96781.92;1678924;84;28087;-79
2022/06/25 01:20:37;;;;;;;5.03;2.85;;;;;;;14.84;61.24;96778.34;1680210;84;25833;-79
2022/06/25 01:23:04;;;;;;;4.72;2.72;;;;;;;14.73;61.29;96784.98;1674985;84;25953;-82
2022/06/25 01:25:36;;;;;;;5.15;2.87;;;;;;;14.66;61.43;96784.36;1672679;84;26555;-79
2022/06/25 01:28:04;;;;;;;2.87;2.40;;;;;;;14.64;61.49;96784.32;1677568;84;25800;-81
2022/06/25 01:30:31;;;;;;;3.40;2.65;;;;;;;14.58;61.63;96786.16;1679755;84;27449;-82
2022/06/25 01:32:57;;;;;;;4.08;2.95;;;;;;;14.55;61.67;96789.38;1680772;84;25755;-80
2022/06/25 01:35:24;;;;;;;2.58;2.37;;;;;;;14.51;61.78;96781.97;1677937;84;25787;-80
2022/06/25 01:37:51;;;;;;;4.17;2.60;;;;;;;14.44;61.90;96786.77;1678649;84;25910;-79
2022/06/25 01:40:17;;;;;;;2.80;2.50;;;;;;;14.31;61.91;96794.17;1698623;83;25782;-80
2022/06/25 01:42:59;;;;;;;3.30;2.45;;;;;;;14.27;62.15;96786.77;1687373;84;28187;-80
2022/06/25 01:45:33;;;;;;;4.30;2.52;;;;;;;14.24;62.23;96788.64;1704528;83;25749;-78
2022/06/25 01:48:01;;;;;;;5.33;2.65;;;;;;;14.20;62.36;96791.03;1685598;84;25814;-79
2022/06/25 01:50:29;;;;;;;4.28;2.30;;;;;;;14.16;62.46;96795.30;1682876;84;26506;-79
2022/06/25 01:52:56;;;;;;;3.10;2.50;;;;;;;14.03;62.43;96797.82;1686545;83;26559;-79
2022/06/25 01:55:23;;;;;;;3.45;2.65;;;;;;;13.95;62.74;96801.48;1680157;83;28224;-80
2022/06/25 01:57:50;;;;;;;3.98;2.70;;;;;;;13.91;62.98;96800.33;1706611;81;25822;-78
2022/06/25 02:00:24;;;;;;;3.27;2.50;;;;;;;13.88;63.09;96805.73;1733320;81;25713;-79
2022/06/25 02:02:52;;;;;;;3.67;2.55;;;;;;;13.80;63.00;96814.27;1737358;81;26646;-80
2022/06/25 02:05:56;;;;;;;4.60;2.52;;;;;;;13.73;63.20;96805.48;1727497;81;26551;-80
2022/06/25 02:07:51;;;;;;;3.37;2.95;;;;;;;13.72;63.34;96809.26;1732962;81;27378;-79
2022/06/25 02:10:17;;;;;;;3.10;2.80;;;;;;;13.68;63.54;96814.87;1711260;81;25902;-81
2022/06/25 02:12:44;;;;;;;3.98;2.42;;;;;;;13.59;63.62;96805.50;1701991;81;25857;-79
2022/06/25 02:15:11;;;;;;;4.10;3.20;;;;;;;13.58;63.85;96811.46;1709482;81;25810;-80
2022/06/25 02:17:37;;;;;;;3.42;2.70;;;;;;;13.60;63.82;96807.15;1727719;81;26022;-81
2022/06/25 02:20:05;;;;;;;2.92;2.72;;;;;;;13.58;63.96;96818.23;1728066;81;28070;-79
2022/06/25 02:22:32;;;;;;;5.22;2.87;;;;;;;13.55;64.07;96816.54;1748257;81;25747;-78
2022/06/25 02:24:59;;;;;;;4.58;2.55;;;;;;;13.51;64.12;96818.12;1726887;81;25810;-81
2022/06/25 02:27:25;;;;;;;4.12;3.17;;;;;;;13.47;64.18;96816.95;1748971;81;26681;-79
2022/06/25 02:29:52;;;;;;;5.15;2.92;;;;;;;13.48;64.30;96821.30;1730280;81;25882;-81
2022/06/25 02:32:18;;;;;;;3.42;2.75;;;;;;;13.46;64.31;96825.61;1701809;81;28277;-80
2022/06/25 02:34:45;;;;;;;5.53;2.80;;;;;;;13.45;64.34;96821.78;1724425;81;25701;-79
2022/06/25 02:37:12;;;;;;;3.92;2.72;;;;;;;13.42;64.43;96825.80;1706956;81;25851;-79
2022/06/25 02:39:38;;;;;;;2.50;2.30;;;;;;;13.41;64.54;96828.75;1731727;81;26378;-79
2022/06/25 02:42:05;;;;;;;3.52;2.55;;;;;;;13.41;64.59;96828.75;1732840;81;25798;-79
2022/06/25 02:44:31;;;;;;;3.70;2.45;;;;;;;13.41;64.67;96831.46;1741254;79;28091;-79
2022/06/25 02:46:58;;;;;;;4.90;3.00;;;;;;;13.39;64.55;96832.27;1797377;79;25740;-80
2022/06/25 02:49:24;;;;;;;2.70;2.37;;;;;;;13.33;64.63;96834.86;1784712;79;25777;-79
2022/06/25 02:51:51;;;;;;;4.25;2.65;;;;;;;13.31;64.68;96831.56;1788855;79;25696;-78
2022/06/25 02:54:18;;;;;;;2.92;2.62;;;;;;;13.27;64.64;96829.60;1795539;79;26492;-79
2022/06/25 02:59:29;;;;;;;3.58;2.70;;;;;;;13.19;64.80;96839.45;1789624;79;25673;-78
2022/06/25 03:01:56;;;;;;;4.70;2.37;;;;;;;13.10;64.92;96836.28;1800293;79;25761;-79
2022/06/25 03:04:26;;;;;;;4.92;3.27;;;;;;;13.05;65.02;96848.36;1772918;78;25744;-79
2022/06/25 03:06:53;;;;;;;3.45;2.87;;;;;;;13.05;65.14;96840.77;1768352;79;25724;-81
2022/06/25 03:09:20;;;;;;;5.25;3.20;;;;;;;13.04;65.24;96850.77;1790850;79;27479;-78
2022/06/25 03:11:46;;;;;;;5.58;2.80;;;;;;;13.03;65.34;96846.45;1790767;79;25732;-79
2022/06/25 03:14:13;;;;;;;6.97;3.08;;;;;;;13.03;65.48;96849.16;1778847;79;25762;-81
2022/06/25 03:16:39;;;;;;;3.90;3.33;;;;;;;13.04;65.58;96848.62;1773615;79;25717;-78
2022/06/25 03:19:06;;;;;;;5.33;3.12;;;;;;;13.01;65.64;96839.62;1785019;79;25730;-79
2022/06/25 03:21:33;;;;;;;6.15;3.20;;;;;;;13.01;65.69;96841.80;1777475;79;27442;-78
2022/06/25 03:23:59;;;;;;;3.10;2.80;;;;;;;12.95;65.81;96846.80;1790855;79;25835;-78
2022/06/25 03:26:26;;;;;;;3.72;3.35;;;;;;;12.97;65.98;96845.51;1784051;79;25784;-79
2022/06/25 03:28:54;;;;;;;3.52;3.22;;;;;;;13.00;66.13;96844.21;1787249;79;25824;-80
2022/06/25 03:31:23;;;;;;;3.80;3.00;;;;;;;13.04;66.27;96839.94;1787373;79;25654;-80
2022/06/25 03:33:50;;;;;;;3.55;3.17;;;;;;;13.05;66.34;96838.87;1773673;79;27432;-81
2022/06/25 03:36:17;;;;;;;6.17;2.95;;;;;;;13.07;66.37;96834.58;1789059;79;25706;-78
2022/06/25 03:38:43;;;;;;;8.08;2.98;;;;;;;13.08;66.33;96843.82;1780050;78;26512;-81
2022/06/25 03:43:55;;;;;;;6.45;3.62;;;;;;;13.23;66.50;96844.69;1779938;79;26505;-79
2022/06/25 03:46:21;;;;;;;3.83;3.00;;;;;;;13.29;66.54;96849.13;1798231;79;27381;-80
2022/06/25 03:48:48;;;;;;;4.10;3.22;;;;;;;13.36;66.49;96851.19;1781795;79;25686;-78
2022/06/25 03:51:14;;;;;;;3.87;3.15;;;;;;;13.41;66.50;96853.15;1791922;79;25744;-78
2022/06/25 03:53:41;;;;;;;8.95;3.30;;;;;;;13.46;66.55;96853.26;1786328;79;25827;-78
2022/06/25 03:56:07;;;;;;;5.25;3.12;;;;;;;13.50;66.57;96847.65;1780850;79;25527;-78
2022/06/25 03:58:34;;;;;;;6.65;3.77;;;;;;;13.57;66.64;96844.23;1782047;79;27533;-78
2022/06/25 04:01:01;;;;;;;5.90;4.25;;;;;;;13.65;66.63;96839.77;1800446;79;25290;-80
2022/06/25 04:03:27;;;;;;;6.78;4.47;;;;;;;13.73;66.65;96838.56;1784420;79;25758;-80
2022/06/25 04:05:54;;;;;;;9.53;6.55;;;;;;;13.77;66.58;96835.63;1784913;79;25954;-80
2022/06/25 04:08:20;;;;;;;13.10;7.45;;;;;;;13.84;66.64;96838.48;1780192;79;25751;-80
2022/06/25 04:10:47;;;;;;;7.03;4.37;;;;;;;13.90;66.62;96840.20;1779990;79;27407;-80
2022/06/25 04:13:14;;;;;;;6.42;3.92;;;;;;;13.99;66.53;96844.17;1779367;79;25761;-80
2022/06/25 04:15:41;;;;;;;8.40;5.40;;;;;;;14.09;66.52;96848.12;1790745;79;25712;-79
2022/06/25 04:18:08;;;;;;;16.37;8.25;;;;;;;14.18;66.38;96849.34;1790751;79;25780;-80
2022/06/25 04:20:34;;;;;;;11.05;7.53;;;;;;;14.27;66.25;96849.20;1788359;79;25782;-80
2022/06/25 04:23:01;;;;;;;9.40;7.25;;;;;;;14.33;66.13;96850.41;1797338;79;27444;-80
2022/06/25 04:25:28;;;;;;;10.13;6.35;;;;;;;14.41;66.25;96853.26;1782106;79;25228;-80
2022/06/25 04:30:39;;;;;;;12.07;7.15;;;;;;;14.52;66.28;96848.27;1768312;79;25884;-80
2022/06/25 04:33:06;;;;;;;8.23;5.90;;;;;;;14.59;66.17;96849.45;1768266;79;25378;-80
2022/06/25 04:35:32;;;;;;;8.73;4.97;;;;;;;14.64;66.26;96850.33;1794788;79;27376;-80
2022/06/25 04:37:59;;;;;;;7.83;5.97;;;;;;;14.68;66.19;96854.20;1786108;79;25734;-79
2022/06/25 04:40:28;;;;;;;6.62;5.62;;;;;;;14.70;66.02;96852.06;1768258;79;25739;-80
2022/06/25 04:42:54;;;;;;;13.25;6.33;;;;;;;14.77;65.96;96851.33;1798431;79;26369;-79
2022/06/25 04:45:20;;;;;;;10.78;7.00;;;;;;;14.84;65.86;96854.42;1796205;79;25689;-80
2022/06/25 04:47:47;;;;;;;10.35;8.08;;;;;;;14.93;65.88;96856.98;1792735;79;27382;-79
2022/06/25 04:50:13;;;;;;;9.13;7.17;;;;;;;14.98;66.04;96851.05;1786339;79;25825;-80
2022/06/25 04:52:40;;;;;;;9.35;6.92;;;;;;;15.05;66.06;96850.88;1773698;79;25421;-80
2022/06/25 04:55:07;;;;;;;9.78;6.80;;;;;;;15.13;65.98;96850.42;1773598;79;25927;-80
2022/06/25 04:57:34;;;;;;;10.10;7.47;;;;;;;15.20;66.00;96852.44;1799130;79;25633;-79
2022/06/25 05:00:00;;;;;;;9.18;6.50;;;;;;;15.28;65.99;96854.69;1787965;79;27382;-80
2022/06/25 05:02:27;;;;;;;10.08;5.75;;;;;;;15.36;66.16;96850.69;1768417;79;25450;-80
2022/06/25 05:04:54;;;;;;;6.33;5.00;;;;;;;15.44;66.07;96852.97;1779008;79;25649;-80
2022/06/25 05:07:20;;;;;;;6.95;4.78;;;;;;;15.52;65.91;96853.05;1784137;79;25785;-81
2022/06/25 05:09:47;;;;;;;5.65;4.65;;;;;;;15.59;65.66;96844.16;1773652;79;25652;-80
2022/06/25 05:13:11;;;;;;;6.25;4.12;;;;;;;15.64;65.67;96840.14;1788392;79;27495;-79
2022/06/25 05:14:42;;;;;;;4.70;4.20;;;;;;;15.72;65.77;96838.31;1781826;79;25780;-81
2022/06/25 05:17:08;;;;;;;5.75;4.00;;;;;;;15.79;65.58;96837.04;1778031;79;25394;-80
2022/06/25 05:19:35;;;;;;;6.28;4.40;;;;;;;15.87;65.15;96842.54;1773535;79;25735;-79
2022/06/25 05:22:01;;;;;;;5.80;3.60;;;;;;;15.95;65.02;96844.78;1777278;79;25408;-80
2022/06/25 05:24:28;;;;;;;4.00;3.40;;;;;;;16.04;64.94;96836.45;1788639;79;27384;-80
2022/06/25 05:26:54;;;;;;;4.62;3.55;;;;;;;16.11;64.95;96842.48;1794533;79;25906;-80
2022/06/25 05:29:21;;;;;;;5.80;4.00;;;;;;;16.17;64.98;96845.54;1775919;79;25710;-80
2022/06/25 05:31:47;;;;;;;4.80;3.75;;;;;;;16.26;64.85;96853.22;1773685;79;25713;-80
2022/06/25 05:34:14;;;;;;;5.03;3.65;;;;;;;16.35;64.50;96848.92;1792815;79;25732;-81
2022/06/25 05:36:42;;;;;;;4.67;3.83;;;;;;;16.44;64.20;96855.52;1783035;79;27425;-79
2022/06/25 05:39:08;;;;;;;3.65;3.35;;;;;;;16.53;63.94;96855.33;1788670;79;25658;-80
2022/06/25 05:41:35;;;;;;;6.55;4.00;;;;;;;16.63;63.80;96851.33;1791566;79;25748;-80
2022/06/25 05:44:01;;;;;;;7.12;4.08;;;;;;;16.72;63.71;96848.38;1783124;79;25781;-81
2022/06/25 05:46:28;;;;;;;5.47;4.05;;;;;;;16.82;63.91;96845.70;1785660;79;25825;-81
2022/06/25 05:48:55;;;;;;;4.67;3.90;;;;;;;16.92;63.98;96848.48;1797762;79;27229;-80
2022/06/25 05:51:21;;;;;;;5.83;3.62;;;;;;;17.03;64.00;96844.44;1799858;78;25423;-81
2022/06/25 05:53:48;;;;;;;5.70;3.80;;;;;;;17.13;63.97;96849.96;1793239;79;25842;-81
2022/06/25 05:56:15;;;;;;;7.05;3.37;;;;;;;17.24;63.85;96839.37;1786139;79;25748;-81
2022/06/25 05:58:41;;;;;;;5.20;3.60;;;;;;;17.35;63.70;96845.67;1791956;79;25633;-81
2022/06/25 06:01:08;;;;;;;5.42;3.62;;;;;;;17.43;63.33;96836.41;1798293;79;28211;-81
2022/06/25 06:03:34;;;;;;;4.97;3.37;;;;;;;17.55;62.99;96844.36;1774436;79;26237;-81
2022/06/25 06:06:01;;;;;;;4.65;3.67;;;;;;;17.67;62.84;96844.14;1768218;79;25830;-81
2022/06/25 06:08:27;;;;;;;5.95;3.55;;;;;;;17.76;62.60;96841.15;1783403;79;26514;-81
2022/06/25 06:10:54;;;;;;;7.30;3.05;;;;;;;17.88;62.38;96838.44;1772471;79;25852;-82
2022/06/25 06:13:20;;;;;;;5.80;3.35;;;;;;;18.00;61.95;96836.27;1775223;79;27362;-81
2022/06/25 06:15:47;;;;;;;7.12;3.17;;;;;;;18.12;61.88;96834.62;1773545;79;25468;-81
2022/06/25 06:18:14;;;;;;;3.80;2.80;;;;;;;18.24;61.70;96839.27;1772523;79;25743;-82
2022/06/25 06:20:41;;;;;;;5.30;3.25;;;;;;;18.38;61.59;96834.62;1797082;79;26553;-81
2022/06/25 06:23:07;;;;;;;3.60;2.95;;;;;;;18.50;61.33;96832.42;1797031;79;25370;-81
2022/06/25 06:25:34;;;;;;;5.12;3.00;;;;;;;18.64;60.72;96826.15;1781749;79;28070;-82
2022/06/25 06:28:00;;;;;;;5.70;2.90;;;;;;;18.80;60.29;96828.30;1791445;79;25682;-82
2022/06/25 06:30:27;;;;;;;4.40;2.67;;;;;;;19.02;60.17;96823.86;1788480;79;25757;-82
2022/06/25 06:32:53;;;;;;;5.35;2.60;;;;;;;19.22;59.74;96820.20;1783665;79;25868;-82
2022/06/25 06:35:20;;;;;;;6.10;3.15;;;;;;;19.37;59.72;96813.30;1797395;79;25689;-81
2022/06/25 06:37:47;;;;;;;3.27;2.83;;;;;;;19.56;59.43;96814.31;1776611;79;28212;-79
2022/06/25 06:40:15;;;;;;;3.75;3.02;;;;;;;19.70;59.44;96811.22;1788873;79;26156;-83
2022/06/25 06:42:41;;;;;;;3.67;2.87;;;;;;;19.87;58.95;96811.39;1789737;79;25775;-81
2022/06/25 06:45:09;;;;;;;4.50;3.35;;;;;;;20.03;58.42;96815.66;1778910;79;25773;-81
2022/06/25 06:47:36;;;;;;;5.50;3.00;;;;;;;20.18;57.64;96825.66;1794272;79;25646;-84
2022/06/25 06:50:04;;;;;;;3.17;2.85;;;;;;;20.31;57.37;96824.45;1777638;79;27452;-79
2022/06/25 06:52:30;;;;;;;4.35;3.10;;;;;;;20.44;56.95;96827.92;1768185;79;25347;-80
2022/06/25 06:55:01;;;;;;;4.90;2.90;;;;;;;20.60;56.49;96833.27;1790761;79;25266;-80
2022/06/25 06:57:26;;;;;;;5.67;2.83;;;;;;;20.74;56.11;96829.56;1782460;79;25904;-80
2022/06/25 06:59:52;;;;;;;3.02;2.72;;;;;;;20.89;55.69;96825.82;1789320;79;25296;-80
2022/06/25 07:02:19;;;;;;;6.95;2.95;;;;;;;21.02;55.29;96823.75;1796385;79;27577;-81
2022/06/25 07:04:45;;;;;;;6.85;3.02;;;;;;;21.16;54.98;96824.69;1777766;79;25931;-81
2022/06/25 07:07:12;;;;;;;5.92;2.77;;;;;;;21.31;54.50;96832.51;1778926;79;25942;-82
2022/06/25 07:09:38;;;;;;;3.77;2.60;;;;;;;21.44;54.45;96827.12;1777847;79;25767;-81
2022/06/25 07:12:05;;;;;;;3.00;2.60;;;;;;;21.59;54.29;96830.22;1794489;79;25765;-83
2022/06/25 07:14:32;;;;;;;9.73;3.17;;;;;;;21.69;53.93;96823.21;1799455;79;27410;-83
2022/06/25 07:16:58;;;;;;;4.15;2.83;;;;;;;21.82;53.47;96815.61;1800180;79;25877;-81
2022/06/25 07:19:25;;;;;;;4.28;2.35;;;;;;;21.87;53.51;96796.83;1800215;79;25266;-84
2022/06/25 07:21:52;;;;;;;5.05;2.60;;;;;;;22.13;53.28;96808.28;1799734;79;25772;-82
2022/06/25 07:24:18;;;;;;;4.17;2.95;;;;;;;22.28;52.86;96810.78;1772635;79;26045;-81
2022/06/25 07:26:45;;;;;;;4.85;2.35;;;;;;;22.36;51.99;96807.34;1788360;79;27414;-81
2022/06/25 07:29:12;;;;;;;5.10;2.12;;;;;;;22.46;51.35;96809.91;1772803;79;25738;-82
2022/06/25 07:31:38;;;;;;;17.92;5.72;;;;;;;22.56;51.01;96801.50;1786443;79;25713;-82
2022/06/25 07:34:05;;;;;;;3.95;3.12;;;;;;;22.44;50.84;96766.80;1782616;79;25715;-81
2022/06/25 07:36:32;;;;;;;6.28;3.55;;;;;;;22.89;50.20;96793.20;1780230;79;25754;-82
2022/06/25 07:39:00;;;;;;;3.15;2.37;;;;;;;22.89;50.20;96793.20;1788266;79;27402;-81
2022/06/25 07:41:28;;;;;;;3.33;2.37;;;;;;;23.01;49.66;96789.95;1768232;79;25670;-84
2022/06/25 07:43:55;;;;;;;2.40;2.20;;;;;;;23.16;49.53;96793.22;1776666;79;25931;-82
2022/06/25 07:46:21;;;;;;;3.65;2.00;;;;;;;23.29;48.77;96793.77;1798676;79;26502;-84
2022/06/25 07:48:48;;;;;;;6.08;2.05;;;;;;;23.43;48.33;96786.84;1773372;79;25682;-82
2022/06/25 07:53:59;;;;;;;2.25;2.05;;;;;;;23.65;47.02;96792.46;1779034;79;25887;-82
2022/06/25 07:56:26;;;;;;;4.35;2.40;;;;;;;23.81;46.90;96794.28;1785265;79;26519;-82
2022/06/25 07:58:53;;;;;;;2.30;2.10;;;;;;;24.00;46.83;96796.33;1771879;79;26480;-82
2022/06/25 08:01:19;;;;;;;2.25;2.08;;;;;;;24.21;46.21;96797.20;1788261;78;26292;-82
2022/06/25 08:03:46;;;;;;;3.25;2.10;;;;;;;24.48;45.96;96805.38;1769088;79;27397;-83
2022/06/25 08:06:12;;;;;;;5.15;2.10;;;;;;;24.88;45.13;96806.23;1779210;79;25897;-83
2022/06/25 08:08:40;;;;;;;5.03;2.25;;;;;;;25.34;44.46;96807.19;1773171;79;25738;-82
2022/06/25 08:11:06;;;;;;;4.92;1.90;;;;;;;25.86;44.21;96796.80;1784977;79;25812;-81
2022/06/25 08:13:33;;;;;;;4.97;2.08;;;;;;;26.36;43.21;96806.27;1786729;79;25910;-84
2022/06/25 08:16:00;;;;;;;9.00;2.42;;;;;;;26.83;42.33;96801.59;1762221;79;28219;-82
2022/06/25 08:18:27;;;;;;;6.62;2.22;;;;;;;27.23;41.74;96794.39;1764449;79;25223;-84
2022/06/25 08:20:53;;;;;;;9.05;1.90;;;;;;;27.60;41.27;96804.66;1763242;79;25749;-84
2022/06/25 08:23:20;;;;;;;10.85;2.90;;;;;;;27.96;40.23;96798.53;1768173;79;26371;-84
2022/06/25 08:25:47;;;;;;;8.88;2.70;;;;;;;28.29;39.48;96800.56;1780083;79;26424;-83
2022/06/25 08:28:13;;;;;;;4.90;2.05;;;;;;;28.61;38.82;96799.78;1780629;79;28068;-85
2022/06/25 08:30:42;;;;;;;4.35;2.20;;;;;;;28.94;37.67;96809.48;1776271;79;25770;-87
2022/06/25 08:33:09;;;;;;;2.35;1.95;;;;;;;29.20;37.25;96801.42;1775169;79;25889;-84
2022/06/25 08:35:35;;;;;;;4.55;2.80;;;;;;;29.52;36.23;96799.70;1782832;79;25782;-86
2022/06/25 08:38:02;;;;;;;4.80;1.62;;;;;;;29.84;35.55;96795.95;1799683;79;26679;-85
2022/06/25 08:40:28;;;;;;;17.57;3.87;;;;;;;30.04;35.06;96795.61;1787851;79;28184;-86
2022/06/25 08:42:55;;;;;;;3.62;1.80;;;;;;;30.43;34.43;96791.97;1794127;79;25860;-84
2022/06/25 08:45:22;;;;;;;185.10;16.93;;;;;;;30.77;33.83;96791.16;1794983;79;25786;-83
2022/06/25 08:47:50;;;;;;;47.45;12.55;;;;;;;31.16;33.78;96793.58;1794806;79;25767;-86
2022/06/25 08:50:23;;;;;;;2.33;1.62;;;;;;;31.49;33.77;96791.83;1768208;79;25906;-83
2022/06/25 08:52:53;;;;;;;2.22;1.80;;;;;;;31.88;32.85;96791.36;1772634;79;28281;-84
2022/06/25 08:55:33;;;;;;;3.33;2.98;;;;;;;32.22;32.04;96798.72;1758505;80;26159;-82
2022/06/25 08:58:00;;;;;;;2.47;1.62;;;;;;;32.40;31.72;96796.52;1749309;80;25358;-86
2022/06/25 09:00:29;;;;;;;1.82;1.60;;;;;;;32.51;31.32;96789.73;1758516;80;25852;-82
2022/06/25 09:02:56;;;;;;;2.02;1.60;;;;;;;32.71;30.91;96790.55;1749422;81;26045;-85
2022/06/25 09:05:30;;;;;;;1.85;1.60;;;;;;;33.01;30.53;96787.34;1736093;81;28374;-82
2022/06/25 09:07:59;;;;;;;5.25;1.90;;;;;;;33.34;30.15;96792.91;1689916;82;25803;-82
2022/06/25 09:10:28;;;;;;;4.08;1.80;;;;;;;33.52;29.50;96792.63;1652088;84;25769;-82
2022/06/25 09:13:00;;;;;;;4.15;2.10;;;;;;;33.65;29.22;96791.83;1643017;84;26134;-78
2022/06/25 09:15:35;;;;;;;1.85;1.70;;;;;;;33.92;28.72;96792.89;1652901;85;25764;-79
2022/06/25 09:18:13;;;;;;;5.12;1.87;;;;;;;34.18;28.42;96801.02;1646311;85;28471;-83
2022/06/25 09:23:40;;;;;;;3.50;1.98;;;;;;;34.81;28.47;96794.64;1568066;90;25844;-82
2022/06/25 09:26:10;;;;;;;4.28;1.90;;;;;;;34.81;27.99;96801.66;1516732;92;25819;-81
2022/06/25 09:28:44;;;;;;;5.17;1.60;;;;;;;34.64;27.79;96801.05;1521055;93;25910;-85
2022/06/25 09:31:10;;;;;;;3.27;1.70;;;;;;;34.26;26.94;96794.38;1522853;92;27677;-79
2022/06/25 09:33:40;;;;;;;1.80;1.70;;;;;;;33.94;26.77;96796.68;1525903;93;25974;-84
2022/06/25 09:36:10;;;;;;;3.52;1.80;;;;;;;33.67;26.93;96800.66;1567165;91;25788;-80
2022/06/25 09:38:50;;;;;;;3.33;1.77;;;;;;;33.39;27.20;96794.01;1561414;90;25836;-84
2022/06/25 09:41:16;;;;;;;3.58;2.30;;;;;;;33.23;27.66;96794.94;1562797;90;25789;-80
2022/06/25 09:43:47;;;;;;;2.37;1.55;;;;;;;33.01;27.97;96794.33;1567886;90;27532;-83
2022/06/25 09:46:11;;;;;;;3.37;2.00;;;;;;;32.75;28.09;96791.43;1565407;90;25881;-79
2022/06/25 09:48:38;;;;;;;4.33;1.85;;;;;;;32.50;28.53;96791.72;1567522;90;25419;-82
2022/06/25 09:51:18;;;;;;;4.90;1.92;;;;;;;32.39;28.76;96794.08;1565754;90;25775;-82
2022/06/25 09:53:56;;;;;;;2.47;1.90;;;;;;;32.27;28.92;96797.02;1554084;91;25890;-81
2022/06/25 09:56:31;;;;;;;46.13;3.15;;;;;;;32.11;28.99;96798.47;1551420;90;27562;-84
2022/06/25 09:59:00;;;;;;;8.48;1.90;;;;;;;31.88;29.22;96796.16;1572112;90;25944;-82
2022/06/25 10:01:32;;;;;;;3.95;2.15;;;;;;;31.73;29.33;96797.80;1575991;90;25860;-80
2022/06/25 10:04:02;;;;;;;2.22;1.65;;;;;;;31.65;29.39;96795.42;1578050;89;25874;-81
2022/06/25 10:06:35;;;;;;;2.10;1.70;;;;;;;31.67;29.48;96800.05;1561462;91;25833;-81
2022/06/25 10:09:05;;;;;;;3.83;1.80;;;;;;;31.66;29.18;96798.44;1551686;91;27517;-83
2022/06/25 10:11:34;;;;;;;3.22;1.80;;;;;;;31.77;29.12;96792.52;1561611;91;25932;-79
2022/06/25 10:14:01;;;;;;;2.58;1.60;;;;;;;31.88;28.85;96796.94;1551105;91;25648;-79
2022/06/25 10:16:29;;;;;;;3.90;1.70;;;;;;;31.88;28.43;96797.55;1550893;91;25953;-82
2022/06/25 10:18:56;;;;;;;2.85;1.82;;;;;;;31.80;27.92;96786.21;1552996;91;25974;-82
2022/06/25 10:21:25;;;;;;;3.75;2.10;;;;;;;31.72;27.94;96788.62;1567992;89;28435;-79
2022/06/25 10:23:59;;;;;;;2.65;1.62;;;;;;;31.67;27.68;96790.29;1574806;90;25923;-82
2022/06/25 10:26:26;;;;;;;3.17;1.82;;;;;;;31.61;27.41;96788.94;1539393;92;25935;-79
2022/06/25 10:28:53;;;;;;;2.30;1.77;;;;;;;31.59;27.17;96784.30;1565515;85;25800;-81
2022/06/25 10:31:20;;;;;;;2.20;1.72;;;;;;;31.57;27.14;96783.84;1649558;85;25954;-81
2022/06/25 10:34:02;;;;;;;3.20;1.90;;;;;;;31.54;26.80;96780.38;1676326;84;27573;-79
2022/06/25 10:36:48;;;;;;;2.85;1.90;;;;;;;31.51;26.61;96786.70;1635640;87;25924;-79
2022/06/25 10:39:29;;;;;;;3.70;2.00;;;;;;;31.35;27.28;96783.11;1612795;87;25945;-82
2022/06/25 10:45:13;;;;;;;3.50;1.85;;;;;;;31.15;28.22;96783.63;1652019;85;25872;-80
2022/06/25 10:47:48;;;;;;;2.52;1.75;;;;;;;31.10;28.50;96781.91;1613293;87;27710;-80
2022/06/25 10:50:28;;;;;;;4.12;2.12;;;;;;;31.08;28.48;96779.22;1631728;86;25793;-80
2022/06/25 10:53:12;;;;;;;1.82;1.45;;;;;;;31.04;28.13;96781.91;1654102;84;26012;-80
2022/06/25 10:55:52;;;;;;;3.58;1.70;;;;;;;31.07;28.32;96777.02;1649653;84;25903;-87
2022/06/25 10:58:28;;;;;;;1.80;1.70;;;;;;;31.11;28.83;96783.53;1628233;87;25997;-80
2022/06/25 11:01:00;;;;;;;2.17;2.00;;;;;;;31.11;28.21;96782.13;1598133;88;27411;-80
2022/06/25 11:03:38;;;;;;;6.80;2.02;;;;;;;31.09;27.64;96780.87;1610790;86;25930;-81
2022/06/25 11:06:22;;;;;;;3.25;2.20;;;;;;;31.01;28.23;96779.86;1678379;84;26461;-85
2022/06/25 11:08:51;;;;;;;2.02;1.85;;;;;;;30.94;28.45;96775.47;1594773;89;25720;-85
2022/06/25 11:11:27;;;;;;;2.05;1.87;;;;;;;30.86;28.26;96776.47;1591895;89;25780;-81
2022/06/25 11:13:56;;;;;;;3.75;2.20;;;;;;;30.89;28.34;96776.34;1591467;89;27511;-84
2022/06/25 11:16:22;;;;;;;1.95;1.77;;;;;;;30.86;27.89;96779.25;1593007;89;26006;-79
2022/06/25 11:21:36;;;;;;;3.10;1.82;;;;;;;30.92;27.75;96780.59;1551093;91;25971;-82
2022/06/25 11:24:18;;;;;;;1.85;1.75;;;;;;;30.95;27.57;96784.06;1550175;90;26077;-81
2022/06/25 11:29:49;;;;;;;3.65;1.72;;;;;;;30.66;27.40;96776.13;1525104;92;25945;-81
2022/06/25 11:35:01;;;;;;;10.75;2.37;;;;;;;30.44;27.19;96774.09;1466350;96;26684;-80
2022/06/25 11:37:30;;;;;;;2.65;1.87;;;;;;;30.39;27.51;96777.16;1473507;95;26018;-83
2022/06/25 11:39:57;;;;;;;4.92;2.17;;;;;;;30.36;27.39;96783.42;1480105;95;27462;-81
2022/06/25 11:42:23;;;;;;;2.35;1.87;;;;;;;30.22;27.48;96777.45;1481528;96;25915;-81
2022/06/25 11:44:54;;;;;;;3.92;1.90;;;;;;;30.09;27.55;96781.43;1474611;96;25883;-81
2022/06/25 11:47:25;;;;;;;2.20;2.00;;;;;;;30.06;27.67;96784.94;1453021;97;25891;-82
2022/06/25 11:49:52;;;;;;;3.40;1.92;;;;;;;30.05;28.35;96784.13;1456487;98;26076;-80
2022/06/25 11:52:23;;;;;;;5.92;2.10;;;;;;;30.05;28.66;96777.75;1449359;97;27635;-83
2022/06/25 11:54:51;;;;;;;2.77;2.12;;;;;;;30.06;28.88;96780.77;1466732;97;25803;-81
2022/06/25 11:57:25;;;;;;;2.05;1.72;;;;;;;30.03;28.43;96784.25;1447706;97;26044;-81
2022/06/25 11:59:54;;;;;;;2.12;1.92;;;;;;;30.01;28.52;96780.42;1398418;102;26184;-83
2022/06/25 12:02:21;;;;;;;4.42;2.17;;;;;;;30.00;28.91;96776.59;1397971;102;26040;-84
2022/06/25 12:04:58;;;;;;;4.25;2.27;;;;;;;30.00;28.65;96774.63;1401929;101;27590;-81
2022/06/25 12:07:27;;;;;;;2.22;1.72;;;;;;;29.98;29.59;96776.13;1411416;99;26004;-81